Queensgate, Washington
Current Conditions -  °F | °C
As of 4:53 PM on Sunday 21 Dec 2014 (Local Time) from KPAE Reporting Station
Few Clouds Few Clouds  
Wind Chill: 50°   Ceiling: Unl
Heat Index: 50°   Visibility: 10mi
Dew Point: 46°   Wind: 5mph
Humidity: 86%   Direction: 110°ESE
Pressure: 30.02"   Gusts: NA
Location:  47.7527°N, 122.215°W
Report Text: KPAE 220053Z 11004KT 10SM FEW060 10/08 A3002 RMK AO2 SLP166 T01000078
Loading
Personal Weather Stations






























Interactive Weather Map New forecast layout! Learn more

10-Day Weather Forecast

Advertisements
Track Severe Weather on mobile